Time;durP1;ratioP1;P1;durP2;ratioP2;P2;SDS_P1;SDS_P2;PMS_P1;PMS_P2;Temp;Humidity;BMP_temperature;BMP_pressure;BME280_temperature;BME280_humidity;BME280_pressure;Samples;Min_cycle;Max_cycle;Signal;HPM_P1;HPM_P2
2022/04/25 00:01:11;;;;;;;;;;;16.00;91.40;;;;;;5072571;28;19999;-76
2022/04/25 00:03:37;;;;;;;;;;;16.00;91.30;;;;;;5084012;28;20022;-77
2022/04/25 00:06:03;;;;;;;;;;;16.10;91.20;;;;;;5092789;28;19976;-77
2022/04/25 00:08:29;;;;;;;;;;;16.10;91.10;;;;;;5092768;28;19928;-75
2022/04/25 00:10:55;;;;;;;;;;;16.10;91.00;;;;;;5088006;28;19961;-77
2022/04/25 00:13:21;;;;;;;;;;;16.20;90.90;;;;;;5092730;28;20260;-77
2022/04/25 00:15:47;;;;;;;;;;;16.20;90.90;;;;;;5092429;28;19919;-75
2022/04/25 00:18:13;;;;;;;;;;;16.20;90.90;;;;;;5092313;28;19908;-76
2022/04/25 00:20:39;;;;;;;;;;;16.10;91.10;;;;;;5092622;28;19908;-76
2022/04/25 00:23:05;;;;;;;;;;;16.10;91.20;;;;;;5092151;28;19908;-77
2022/04/25 00:25:31;;;;;;;;;;;16.20;91.00;;;;;;5092316;28;20058;-76
2022/04/25 00:27:57;;;;;;;;;;;16.30;90.80;;;;;;5092060;28;20354;-76
2022/04/25 00:30:24;;;;;;;;;;;16.40;90.80;;;;;;5092397;28;19908;-76
2022/04/25 00:32:50;;;;;;;;;;;16.40;90.90;;;;;;5092047;28;19915;-75
2022/04/25 00:35:16;;;;;;;;;;;16.30;91.00;;;;;;5091868;28;19908;-76
2022/04/25 00:37:42;;;;;;;;;;;16.30;91.10;;;;;;5092087;28;20002;-75
2022/04/25 00:40:08;;;;;;;;;;;16.30;91.10;;;;;;5092116;28;20405;-76
2022/04/25 00:42:35;;;;;;;;;;;16.20;91.10;;;;;;5091663;28;19926;-75
2022/04/25 00:45:00;;;;;;;;;;;16.20;91.10;;;;;;5091861;28;20018;-76
2022/04/25 00:47:27;;;;;;;;;;;16.30;91.10;;;;;;5091694;28;19938;-76
2022/04/25 00:49:53;;;;;;;;;;;16.40;90.70;;;;;;5091653;28;19908;-76
2022/04/25 00:52:19;;;;;;;;;;;16.30;90.90;;;;;;5091587;28;19912;-76
2022/04/25 00:54:45;;;;;;;;;;;16.20;90.90;;;;;;5091676;28;19953;-75
2022/04/25 00:57:11;;;;;;;;;;;16.20;91.00;;;;;;5091757;28;19916;-75
2022/04/25 00:59:37;;;;;;;;;;;16.20;91.10;;;;;;5091544;28;19908;-76
2022/04/25 01:02:05;;;;;;;;;;;16.20;91.10;;;;;;5091673;28;19908;-75
2022/04/25 01:04:49;;;;;;;;;;;16.20;91.20;;;;;;5091446;28;19916;-76
2022/04/25 01:07:52;;;;;;;;;;;16.10;91.30;;;;;;5091617;28;19930;-74
2022/04/25 01:10:52;;;;;;;;;;;16.10;91.30;;;;;;5091367;28;20317;-74
2022/04/25 01:13:18;;;;;;;;;;;16.10;91.30;;;;;;5091167;28;19908;-76
2022/04/25 01:15:44;;;;;;;;;;;16.10;91.30;;;;;;5090331;28;19908;-77
2022/04/25 01:18:09;;;;;;;;;;;16.20;91.30;;;;;;5091390;28;20359;-75
2022/04/25 01:20:52;;;;;;;;;;;16.20;91.20;;;;;;5091150;28;19961;-76
2022/04/25 01:28:52;;;;;;;;;;;16.10;91.30;;;;;;5091865;28;19915;-75
2022/04/25 01:31:18;;;;;;;;;;;16.00;91.60;;;;;;5091338;28;19908;-76
2022/04/25 01:33:53;;;;;;;;;;;15.90;91.70;;;;;;5079679;28;19908;-75
2022/04/25 01:36:23;;;;;;;;;;;15.90;91.60;;;;;;5071139;28;19912;-77
2022/04/25 01:38:50;;;;;;;;;;;16.00;91.60;;;;;;5071123;28;19908;-75
2022/04/25 01:41:16;;;;;;;;;;;16.00;91.70;;;;;;5070903;28;20043;-76
2022/04/25 01:43:42;;;;;;;;;;;16.00;91.60;;;;;;5071035;28;20426;-76
2022/04/25 01:46:07;;;;;;;;;;;16.00;91.40;;;;;;5070765;28;19908;-75
2022/04/25 01:48:52;;;;;;;;;;;16.00;91.50;;;;;;5069407;28;20000;-75
2022/04/25 01:51:51;;;;;;;;;;;15.90;91.60;;;;;;5070960;28;19912;-76
2022/04/25 01:54:51;;;;;;;;;;;15.80;91.80;;;;;;5070716;28;19909;-77
2022/04/25 01:57:17;;;;;;;;;;;15.80;92.10;;;;;;5069158;28;19908;-75
2022/04/25 01:59:43;;;;;;;;;;;15.60;92.30;;;;;;5070675;28;19926;-75
2022/04/25 02:02:11;;;;;;;;;;;15.60;92.40;;;;;;5070938;28;19908;-76
2022/04/25 02:04:36;;;;;;;;;;;15.50;92.60;;;;;;5070577;28;19916;-75
2022/04/25 02:07:02;;;;;;;;;;;15.40;92.80;;;;;;5070498;28;20047;-75
2022/04/25 02:09:50;;;;;;;;;;;15.30;92.90;;;;;;5070935;28;19912;-74
2022/04/25 02:12:15;;;;;;;;;;;15.30;93.00;;;;;;5070574;28;19931;-75
2022/04/25 02:14:42;;;;;;;;;;;15.30;93.10;;;;;;5070391;28;19915;-75
2022/04/25 02:17:09;;;;;;;;;;;15.20;93.20;;;;;;5070844;28;19964;-74
2022/04/25 02:19:38;;;;;;;;;;;15.20;93.50;;;;;;5076733;28;20018;-75
2022/04/25 02:22:05;;;;;;;;;;;15.20;93.10;;;;;;5070912;28;19912;-75
2022/04/25 02:24:31;;;;;;;;;;;15.10;93.10;;;;;;5070394;28;20245;-75
2022/04/25 02:26:57;;;;;;;;;;;15.10;93.20;;;;;;5077376;28;20320;-76
2022/04/25 02:29:23;;;;;;;;;;;15.10;93.20;;;;;;5074531;28;20023;-75
2022/04/25 02:31:49;;;;;;;;;;;15.10;93.10;;;;;;5074022;28;19962;-76
2022/04/25 02:34:14;;;;;;;;;;;15.10;93.10;;;;;;5073989;28;20272;-76
2022/04/25 02:36:40;;;;;;;;;;;15.20;93.00;;;;;;5074040;28;19931;-75
2022/04/25 02:39:06;;;;;;;;;;;15.20;92.80;;;;;;5074327;28;19914;-76
2022/04/25 02:41:32;;;;;;;;;;;15.30;92.70;;;;;;5072205;28;20022;-75
2022/04/25 02:43:58;;;;;;;;;;;15.30;92.60;;;;;;5073915;28;19915;-74
2022/04/25 02:46:24;;;;;;;;;;;15.40;92.30;;;;;;5072391;28;19985;-76
2022/04/25 02:48:50;;;;;;;;;;;15.50;91.90;;;;;;5072290;28;19913;-74
2022/04/25 02:51:16;;;;;;;;;;;15.50;91.80;;;;;;5074449;28;19916;-75
2022/04/25 02:53:42;;;;;;;;;;;15.60;91.90;;;;;;5073791;28;19912;-75
2022/04/25 02:56:08;;;;;;;;;;;15.60;91.40;;;;;;5073612;28;19915;-74
2022/04/25 02:58:52;;;;;;;;;;;15.60;91.10;;;;;;5074360;28;19953;-75
2022/04/25 03:01:52;;;;;;;;;;;15.60;90.80;;;;;;5074069;28;19935;-75
2022/04/25 03:04:18;;;;;;;;;;;15.70;90.70;;;;;;5073767;28;20315;-75
2022/04/25 03:06:45;;;;;;;;;;;15.80;90.50;;;;;;5073825;28;19912;-75
2022/04/25 03:09:11;;;;;;;;;;;15.80;90.40;;;;;;5089823;28;20242;-75
2022/04/25 03:11:37;;;;;;;;;;;15.90;90.40;;;;;;5094040;28;20379;-76
2022/04/25 03:14:03;;;;;;;;;;;15.90;90.00;;;;;;5093750;28;19927;-76
2022/04/25 03:16:29;;;;;;;;;;;16.00;90.00;;;;;;5093885;28;19908;-76
2022/04/25 03:18:55;;;;;;;;;;;16.00;89.30;;;;;;5093507;28;19920;-75
2022/04/25 03:21:20;;;;;;;;;;;16.00;89.80;;;;;;5091978;28;19908;-76
2022/04/25 03:23:46;;;;;;;;;;;16.10;89.30;;;;;;5093682;28;19919;-75
2022/04/25 03:26:12;;;;;;;;;;;16.10;88.80;;;;;;5093648;28;20449;-76
2022/04/25 03:28:51;;;;;;;;;;;16.00;88.70;;;;;;5093354;28;19908;-75
2022/04/25 03:31:17;;;;;;;;;;;16.00;89.30;;;;;;5093216;28;19920;-75
2022/04/25 03:33:42;;;;;;;;;;;16.10;89.40;;;;;;5091668;28;19915;-75
2022/04/25 03:36:08;;;;;;;;;;;16.00;90.00;;;;;;5093477;28;20004;-75
2022/04/25 03:38:34;;;;;;;;;;;15.90;89.50;;;;;;5092090;28;19908;-76
2022/04/25 03:41:00;;;;;;;;;;;16.00;90.00;;;;;;5093377;28;19965;-75
2022/04/25 03:43:26;;;;;;;;;;;15.90;89.60;;;;;;5091419;28;19924;-76
2022/04/25 03:45:52;;;;;;;;;;;16.00;89.10;;;;;;5093682;28;19939;-76
2022/04/25 03:48:18;;;;;;;;;;;16.00;88.60;;;;;;5092842;28;19944;-75
2022/04/25 03:50:44;;;;;;;;;;;15.90;88.10;;;;;;5092914;28;19908;-75
2022/04/25 03:53:11;;;;;;;;;;;16.00;87.60;;;;;;5092847;28;19965;-75
2022/04/25 03:58:21;;;;;;;;;;;16.00;87.80;;;;;;5093199;28;19962;-76
2022/04/25 04:00:47;;;;;;;;;;;16.00;87.60;;;;;;5092680;28;19943;-76
2022/04/25 04:03:15;;;;;;;;;;;16.10;87.80;;;;;;5092587;28;19912;-76
2022/04/25 04:05:42;;;;;;;;;;;16.00;87.70;;;;;;5092808;28;19923;-76
2022/04/25 04:08:08;;;;;;;;;;;16.00;87.90;;;;;;5092553;28;19974;-75
2022/04/25 04:10:34;;;;;;;;;;;16.00;88.20;;;;;;5092557;28;20019;-76
2022/04/25 04:13:00;;;;;;;;;;;15.90;88.30;;;;;;5092661;28;20401;-74
2022/04/25 04:15:52;;;;;;;;;;;16.00;88.30;;;;;;5092270;28;20283;-74
2022/04/25 04:18:18;;;;;;;;;;;15.90;87.80;;;;;;5092015;28;19908;-75
2022/04/25 04:20:43;;;;;;;;;;;15.90;87.80;;;;;;5082564;28;19931;-75
2022/04/25 04:23:10;;;;;;;;;;;16.00;87.60;;;;;;5079269;28;19912;-74
2022/04/25 04:25:36;;;;;;;;;;;16.00;87.80;;;;;;5078042;28;19923;-76
2022/04/25 04:28:06;;;;;;;;;;;16.00;88.10;;;;;;5085634;28;19912;-75
2022/04/25 04:30:33;;;;;;;;;;;16.00;88.20;;;;;;5091817;28;20015;-76
2022/04/25 04:32:58;;;;;;;;;;;16.00;88.40;;;;;;5091902;28;19908;-73
2022/04/25 04:38:09;;;;;;;;;;;16.10;88.80;;;;;;5092514;28;20204;-76
2022/04/25 04:40:35;;;;;;;;;;;16.10;88.60;;;;;;5091742;28;19912;-76
2022/04/25 04:43:01;;;;;;;;;;;16.20;88.30;;;;;;5091482;28;20224;-73
2022/04/25 04:45:27;;;;;;;;;;;16.30;88.10;;;;;;5092176;28;19916;-76
2022/04/25 04:47:53;;;;;;;;;;;16.40;88.00;;;;;;5091923;28;19919;-75
2022/04/25 04:50:55;;;;;;;;;;;16.50;87.80;;;;;;5091931;28;19912;-76
2022/04/25 04:53:21;;;;;;;;;;;16.70;87.60;;;;;;5092154;28;19938;-76
2022/04/25 04:55:47;;;;;;;;;;;16.90;88.00;;;;;;5092048;28;20002;-76
2022/04/25 04:58:13;;;;;;;;;;;17.00;88.40;;;;;;5091859;28;20344;-77
2022/04/25 05:00:39;;;;;;;;;;;17.20;88.20;;;;;;5090770;28;19908;-76
2022/04/25 05:03:05;;;;;;;;;;;17.40;88.20;;;;;;5091957;28;20013;-75
2022/04/25 05:05:31;;;;;;;;;;;17.50;88.40;;;;;;5091806;28;20271;-74
2022/04/25 05:07:59;;;;;;;;;;;17.80;88.80;;;;;;5091900;28;19915;-77
2022/04/25 05:10:25;;;;;;;;;;;18.00;88.80;;;;;;5090624;28;19912;-76
2022/04/25 05:12:55;;;;;;;;;;;18.20;88.10;;;;;;5090458;28;19912;-76
2022/04/25 05:15:21;;;;;;;;;;;18.70;87.10;;;;;;5092487;28;19991;-76
2022/04/25 05:17:52;;;;;;;;;;;19.50;84.50;;;;;;5091796;28;19908;-77
2022/04/25 05:20:19;;;;;;;;;;;20.30;81.80;;;;;;5092060;28;20228;-76
2022/04/25 05:22:47;;;;;;;;;;;21.10;79.00;;;;;;5091693;28;19908;-77
2022/04/25 05:25:17;;;;;;;;;;;21.70;77.20;;;;;;5091549;28;19916;-72
2022/04/25 05:27:46;;;;;;;;;;;22.40;73.90;;;;;;5091664;28;20244;-77
2022/04/25 05:30:13;;;;;;;;;;;22.70;72.70;;;;;;5091673;28;19908;-77
2022/04/25 05:32:42;;;;;;;;;;;22.80;71.90;;;;;;5089570;28;19912;-76
2022/04/25 05:35:08;;;;;;;;;;;23.30;70.50;;;;;;5091510;28;19918;-75
2022/04/25 05:37:34;;;;;;;;;;;23.40;71.50;;;;;;5091457;28;19909;-75
2022/04/25 05:40:00;;;;;;;;;;;23.70;71.50;;;;;;5091512;28;19912;-76
2022/04/25 05:42:26;;;;;;;;;;;24.20;70.10;;;;;;5091101;28;19920;-75
2022/04/25 05:44:52;;;;;;;;;;;24.60;66.90;;;;;;5091326;28;19916;-77
2022/04/25 05:47:17;;;;;;;;;;;24.90;66.40;;;;;;5091551;28;20065;-75
2022/04/25 05:52:37;;;;;;;;;;;26.20;64.40;;;;;;5091842;28;20016;-69
2022/04/25 05:55:04;;;;;;;;;;;26.80;64.20;;;;;;5091579;28;20016;-74
2022/04/25 05:57:42;;;;;;;;;;;26.80;63.50;;;;;;5091124;28;19908;-75
2022/04/25 06:00:09;;;;;;;;;;;27.50;61.60;;;;;;5091297;28;19908;-74
2022/04/25 06:02:40;;;;;;;;;;;28.60;59.90;;;;;;5095529;28;19992;-75
2022/04/25 06:05:06;;;;;;;;;;;28.40;59.70;;;;;;5095108;28;19924;-75
2022/04/25 06:07:33;;;;;;;;;;;28.30;59.50;;;;;;5095600;28;19958;-75
2022/04/25 06:10:22;;;;;;;;;;;28.50;59.30;;;;;;5095279;28;19963;-75
2022/04/25 06:12:48;;;;;;;;;;;28.80;58.90;;;;;;5094969;28;19916;-75
2022/04/25 06:15:16;;;;;;;;;;;29.40;58.40;;;;;;5095620;28;19908;-75
2022/04/25 06:17:42;;;;;;;;;;;30.30;56.90;;;;;;5095423;28;19916;-75
2022/04/25 06:20:09;;;;;;;;;;;30.80;55.70;;;;;;5095226;28;20233;-76
2022/04/25 06:22:36;;;;;;;;;;;29.70;56.10;;;;;;5095038;28;20283;-76
2022/04/25 06:25:02;;;;;;;;;;;28.90;57.00;;;;;;5095134;28;20320;-75
2022/04/25 06:27:28;;;;;;;;;;;27.80;58.10;;;;;;5093559;28;19908;-75
2022/04/25 06:29:54;;;;;;;;;;;27.40;60.20;;;;;;5093439;28;19908;-74
2022/04/25 06:32:20;;;;;;;;;;;27.40;60.60;;;;;;5091194;28;20340;-75
2022/04/25 06:34:46;;;;;;;;;;;27.60;61.00;;;;;;5083395;28;19909;-74
2022/04/25 06:37:13;;;;;;;;;;;28.60;59.70;;;;;;5074928;28;20007;-74
2022/04/25 06:39:39;;;;;;;;;;;29.60;57.40;;;;;;5074529;28;20310;-75
2022/04/25 06:42:05;;;;;;;;;;;29.50;57.00;;;;;;5074145;28;20007;-74
2022/04/25 06:44:31;;;;;;;;;;;29.60;56.90;;;;;;5074648;28;19924;-74
2022/04/25 06:47:22;;;;;;;;;;;30.80;55.20;;;;;;5074202;28;20301;-76
2022/04/25 06:49:48;;;;;;;;;;;30.90;52.60;;;;;;5074232;28;20049;-76
2022/04/25 06:52:15;;;;;;;;;;;32.00;52.80;;;;;;5074049;28;20007;-76
2022/04/25 06:54:41;;;;;;;;;;;32.40;50.60;;;;;;5072677;28;20106;-77
2022/04/25 06:57:06;;;;;;;;;;;33.50;49.50;;;;;;5074212;28;20011;-80
2022/04/25 06:59:32;;;;;;;;;;;33.30;46.20;;;;;;5072627;28;19909;-77
2022/04/25 07:01:59;;;;;;;;;;;32.90;47.10;;;;;;5074153;28;19909;-78
2022/04/25 07:04:24;;;;;;;;;;;33.70;47.00;;;;;;5074015;28;19970;-78
2022/04/25 07:06:50;;;;;;;;;;;34.30;46.30;;;;;;5074488;28;20355;-76
2022/04/25 07:09:16;;;;;;;;;;;34.70;46.10;;;;;;5073884;28;20318;-77
2022/04/25 07:11:43;;;;;;;;;;;35.60;45.20;;;;;;5073947;28;19912;-77
2022/04/25 07:14:10;;;;;;;;;;;36.20;43.30;;;;;;5073875;28;20267;-76
2022/04/25 07:16:36;;;;;;;;;;;35.70;41.00;;;;;;5073652;28;19959;-77
2022/04/25 07:19:01;;;;;;;;;;;35.80;40.80;;;;;;5073687;28;19908;-76
2022/04/25 07:29:47;;;;;;;;;;;33.40;44.20;;;;;;5093644;28;19989;-76
2022/04/25 07:32:16;;;;;;;;;;;30.50;45.40;;;;;;5093146;28;19912;-75
2022/04/25 07:34:48;;;;;;;;;;;29.60;49.10;;;;;;5093472;28;20006;-84
2022/04/25 07:37:15;;;;;;;;;;;29.40;47.90;;;;;;5094008;28;19919;-78
2022/04/25 07:39:41;;;;;;;;;;;29.40;44.80;;;;;;5093823;28;20321;-78
2022/04/25 07:42:07;;;;;;;;;;;29.00;44.10;;;;;;5091356;28;19927;-79
2022/04/25 07:44:33;;;;;;;;;;;28.60;42.10;;;;;;5092683;28;20432;-77
2022/04/25 07:46:59;;;;;;;;;;;28.40;42.90;;;;;;5092555;28;20090;-78
2022/04/25 07:49:25;;;;;;;;;;;28.50;43.80;;;;;;5092741;28;20004;-80
2022/04/25 07:51:51;;;;;;;;;;;28.80;43.80;;;;;;5092466;28;20010;-79
2022/04/25 07:54:19;;;;;;;;;;;29.10;43.70;;;;;;5092689;28;19992;-79
2022/04/25 07:56:45;;;;;;;;;;;28.80;43.70;;;;;;5092700;28;20263;-79
2022/04/25 07:59:11;;;;;;;;;;;28.80;42.40;;;;;;5091657;28;19972;-77
2022/04/25 08:01:37;;;;;;;;;;;28.90;42.10;;;;;;5091551;28;19930;-75
2022/04/25 08:04:03;;;;;;;;;;;29.20;42.30;;;;;;5091542;28;19924;-78
2022/04/25 08:06:29;;;;;;;;;;;29.30;44.10;;;;;;5091196;28;19951;-75
2022/04/25 08:08:56;;;;;;;;;;;29.50;45.80;;;;;;5090132;28;19916;-78
2022/04/25 08:11:22;;;;;;;;;;;29.20;54.60;;;;;;5090389;28;19915;-75
2022/04/25 08:19:17;;;;;;;;;;;27.30;64.20;;;;;;5093782;28;19914;-77
2022/04/25 08:21:45;;;;;;;;;;;26.60;66.30;;;;;;5091159;28;19955;-76
2022/04/25 08:24:11;;;;;;;;;;;26.40;66.70;;;;;;5084650;28;19917;-77
2022/04/25 08:26:37;;;;;;;;;;;26.20;65.90;;;;;;5079729;28;20364;-75
2022/04/25 08:29:03;;;;;;;;;;;26.50;63.90;;;;;;5091819;28;19918;-78
2022/04/25 08:31:29;;;;;;;;;;;26.80;62.60;;;;;;5093186;28;20484;-78
2022/04/25 08:33:56;;;;;;;;;;;27.00;61.60;;;;;;5093490;28;19993;-75
2022/04/25 08:36:22;;;;;;;;;;;27.10;60.20;;;;;;5092571;28;19955;-75
2022/04/25 08:38:48;;;;;;;;;;;27.20;59.10;;;;;;5093407;28;19919;-78
2022/04/25 08:41:16;;;;;;;;;;;26.90;59.30;;;;;;5092917;28;19919;-75
2022/04/25 08:43:42;;;;;;;;;;;26.40;59.40;;;;;;5091463;28;20015;-77
2022/04/25 08:46:11;;;;;;;;;;;26.40;59.20;;;;;;5092850;28;19916;-79
2022/04/25 08:48:39;;;;;;;;;;;26.50;60.00;;;;;;5093265;28;19908;-79
2022/04/25 08:51:05;;;;;;;;;;;26.90;59.50;;;;;;5091497;28;20386;-79
2022/04/25 08:53:32;;;;;;;;;;;26.80;58.40;;;;;;5091535;28;19912;-79
2022/04/25 08:56:00;;;;;;;;;;;26.90;58.70;;;;;;5091290;28;19915;-79
2022/04/25 08:58:26;;;;;;;;;;;26.80;60.10;;;;;;5092026;28;19956;-78
2022/04/25 09:00:54;;;;;;;;;;;26.80;58.80;;;;;;5091687;28;20022;-79
2022/04/25 09:03:20;;;;;;;;;;;26.60;58.70;;;;;;5091642;28;19915;-79
2022/04/25 09:05:46;;;;;;;;;;;26.20;59.80;;;;;;5091603;28;19916;-78
2022/04/25 09:08:12;;;;;;;;;;;26.20;59.80;;;;;;5091367;28;19934;-78
2022/04/25 09:10:50;;;;;;;;;;;26.00;59.80;;;;;;5091723;28;20272;-78
2022/04/25 09:13:16;;;;;;;;;;;25.90;60.00;;;;;;5091575;28;20061;-80
2022/04/25 09:15:42;;;;;;;;;;;26.10;59.80;;;;;;5089884;28;19999;-79
2022/04/25 09:21:14;;;;;;;;;;;26.30;58.40;;;;;;5091216;28;19973;-79
2022/04/25 09:23:40;;;;;;;;;;;26.20;59.20;;;;;;5091445;28;19916;-80
2022/04/25 09:26:17;;;;;;;;;;;26.10;59.40;;;;;;5091581;28;19956;-78
2022/04/25 09:28:47;;;;;;;;;;;26.50;58.40;;;;;;5090984;28;19918;-78
2022/04/25 09:31:13;;;;;;;;;;;26.30;59.60;;;;;;5091425;28;19909;-79
2022/04/25 09:33:39;;;;;;;;;;;26.20;59.30;;;;;;5090802;28;19991;-78
2022/04/25 09:36:06;;;;;;;;;;;26.10;59.70;;;;;;5092428;28;20308;-79
2022/04/25 09:38:33;;;;;;;;;;;26.10;59.80;;;;;;5095227;28;20325;-79
2022/04/25 09:41:00;;;;;;;;;;;26.20;60.00;;;;;;5095236;28;20003;-79
2022/04/25 09:43:33;;;;;;;;;;;26.50;59.90;;;;;;5095062;28;19960;-79
2022/04/25 09:46:08;;;;;;;;;;;26.50;57.80;;;;;;5093714;28;19916;-78
2022/04/25 09:48:35;;;;;;;;;;;26.60;57.90;;;;;;5094907;28;19963;-79
2022/04/25 09:51:02;;;;;;;;;;;26.60;58.20;;;;;;5095114;28;19912;-79
2022/04/25 09:53:53;;;;;;;;;;;26.50;58.70;;;;;;5095168;28;19916;-78
2022/04/25 09:56:26;;;;;;;;;;;26.30;58.60;;;;;;5095059;28;20364;-78
2022/04/25 09:59:00;;;;;;;;;;;26.20;59.00;;;;;;5095026;28;19912;-79
2022/04/25 10:01:26;;;;;;;;;;;26.00;58.20;;;;;;5095465;28;19911;-77
2022/04/25 10:03:52;;;;;;;;;;;25.70;58.20;;;;;;5094838;28;20268;-78
2022/04/25 10:06:20;;;;;;;;;;;25.80;58.50;;;;;;5094672;28;19923;-79
2022/04/25 10:08:47;;;;;;;;;;;25.80;58.00;;;;;;5093396;28;19908;-78
2022/04/25 10:11:13;;;;;;;;;;;25.60;58.80;;;;;;5094942;28;19918;-79
2022/04/25 10:13:39;;;;;;;;;;;25.60;58.00;;;;;;5094743;28;20378;-80
2022/04/25 10:16:05;;;;;;;;;;;25.80;57.40;;;;;;5092817;28;19908;-79
2022/04/25 10:18:34;;;;;;;;;;;26.10;57.20;;;;;;5094408;28;19908;-79
2022/04/25 10:21:00;;;;;;;;;;;26.00;56.60;;;;;;5094498;28;19908;-80
2022/04/25 10:23:26;;;;;;;;;;;26.00;56.50;;;;;;5094993;28;19908;-79
2022/04/25 10:25:54;;;;;;;;;;;26.00;56.10;;;;;;5092988;28;19947;-79
2022/04/25 10:28:20;;;;;;;;;;;26.10;55.90;;;;;;5094606;28;19995;-78
2022/04/25 10:30:48;;;;;;;;;;;25.90;55.70;;;;;;5094500;28;19908;-80
2022/04/25 10:33:21;;;;;;;;;;;25.90;55.10;;;;;;5094457;28;19919;-80
2022/04/25 10:35:48;;;;;;;;;;;26.00;56.00;;;;;;5094514;28;19947;-80
2022/04/25 10:38:47;;;;;;;;;;;26.10;56.50;;;;;;5094331;28;19939;-80
2022/04/25 10:44:31;;;;;;;;;;;25.80;56.30;;;;;;5094064;28;19989;-80
2022/04/25 10:47:30;;;;;;;;;;;25.90;55.30;;;;;;5086802;28;19939;-79
2022/04/25 10:49:56;;;;;;;;;;;26.10;55.60;;;;;;5094692;28;20022;-80
2022/04/25 10:52:37;;;;;;;;;;;26.10;55.70;;;;;;5094082;28;19985;-80
2022/04/25 10:55:10;;;;;;;;;;;26.10;55.90;;;;;;5094325;28;19908;-79
2022/04/25 10:57:36;;;;;;;;;;;26.40;56.70;;;;;;5094002;28;19961;-79
2022/04/25 11:00:22;;;;;;;;;;;26.70;56.10;;;;;;5094278;28;19908;-77
2022/04/25 11:03:07;;;;;;;;;;;26.70;56.00;;;;;;5093443;28;19965;-79
2022/04/25 11:05:33;;;;;;;;;;;26.80;52.90;;;;;;5093486;28;20007;-78
2022/04/25 11:08:14;;;;;;;;;;;26.50;48.70;;;;;;5093925;28;19984;-79
2022/04/25 11:10:45;;;;;;;;;;;26.50;46.90;;;;;;5093661;28;19909;-79
2022/04/25 11:13:12;;;;;;;;;;;26.80;45.20;;;;;;5093383;28;20349;-78
2022/04/25 11:15:39;;;;;;;;;;;27.10;45.40;;;;;;5093370;28;19981;-79
2022/04/25 11:18:20;;;;;;;;;;;27.40;46.70;;;;;;5093318;28;19991;-78
2022/04/25 11:20:55;;;;;;;;;;;27.70;45.50;;;;;;5093370;28;19938;-80
2022/04/25 11:23:30;;;;;;;;;;;27.00;47.10;;;;;;5091850;28;19912;-79
2022/04/25 11:25:56;;;;;;;;;;;26.70;47.60;;;;;;5093409;28;19966;-78
2022/04/25 11:28:25;;;;;;;;;;;27.10;47.80;;;;;;5093026;28;19957;-79
2022/04/25 11:31:10;;;;;;;;;;;27.10;47.20;;;;;;5091619;28;19912;-79
2022/04/25 11:33:45;;;;;;;;;;;27.00;46.90;;;;;;5093584;28;19908;-78
2022/04/25 11:36:13;;;;;;;;;;;27.30;46.50;;;;;;5093014;28;20002;-78
2022/04/25 11:41:24;;;;;;;;;;;27.80;46.50;;;;;;5092661;28;19973;-78
2022/04/25 11:43:49;;;;;;;;;;;27.70;46.10;;;;;;5093543;28;19908;-78
2022/04/25 11:46:18;;;;;;;;;;;27.50;45.90;;;;;;5092684;28;20022;-78
2022/04/25 11:48:48;;;;;;;;;;;27.10;47.50;;;;;;5092526;28;20335;-79
2022/04/25 11:51:34;;;;;;;;;;;27.40;46.30;;;;;;5093064;28;19908;-78
2022/04/25 11:54:04;;;;;;;;;;;27.30;45.70;;;;;;5092445;28;19907;-78
2022/04/25 11:56:31;;;;;;;;;;;27.30;45.40;;;;;;5092491;28;20303;-79
2022/04/25 11:58:58;;;;;;;;;;;27.50;46.60;;;;;;5092155;28;19908;-78
2022/04/25 12:01:37;;;;;;;;;;;27.30;46.90;;;;;;5092674;28;19985;-79
2022/04/25 12:04:23;;;;;;;;;;;27.50;47.30;;;;;;5092752;28;19908;-79
2022/04/25 12:06:50;;;;;;;;;;;27.50;47.90;;;;;;5092015;28;19916;-79
2022/04/25 12:17:37;;;;;;;;;;;28.40;48.30;;;;;;5092664;28;19914;-79
2022/04/25 12:20:04;;;;;;;;;;;28.70;48.00;;;;;;5092202;28;19908;-78
2022/04/25 12:22:30;;;;;;;;;;;28.80;47.60;;;;;;5092672;28;19908;-78
2022/04/25 12:25:12;;;;;;;;;;;29.10;47.00;;;;;;5092029;28;20019;-78
2022/04/25 12:27:38;;;;;;;;;;;28.50;46.40;;;;;;5092378;28;19908;-78
2022/04/25 12:30:05;;;;;;;;;;;28.50;46.00;;;;;;5090807;28;19915;-80
2022/04/25 12:32:31;;;;;;;;;;;28.50;46.50;;;;;;5092040;28;19954;-79
2022/04/25 12:34:57;;;;;;;;;;;28.40;47.20;;;;;;5091894;28;19955;-80
2022/04/25 12:37:23;;;;;;;;;;;28.50;47.80;;;;;;5092140;28;19947;-80
2022/04/25 12:40:03;;;;;;;;;;;28.80;49.80;;;;;;5091984;28;19934;-78
2022/04/25 12:42:47;;;;;;;;;;;28.60;65.20;;;;;;5091695;28;20007;-78
2022/04/25 12:45:14;;;;;;;;;;;27.70;68.90;;;;;;5090063;28;20007;-80
2022/04/25 12:47:44;;;;;;;;;;;27.20;71.90;;;;;;5089567;28;20378;-80
2022/04/25 12:50:11;;;;;;;;;;;26.30;73.00;;;;;;5092154;28;19951;-81
2022/04/25 12:52:50;;;;;;;;;;;25.90;74.90;;;;;;5091691;28;19908;-79
2022/04/25 12:55:16;;;;;;;;;;;25.90;73.80;;;;;;5091991;28;19908;-80
2022/04/25 12:57:51;;;;;;;;;;;25.80;74.30;;;;;;5091803;28;20020;-78
2022/04/25 13:00:17;;;;;;;;;;;25.60;72.60;;;;;;5090220;28;19917;-79
2022/04/25 13:02:43;;;;;;;;;;;25.50;73.00;;;;;;5091718;28;19924;-79
2022/04/25 13:05:09;;;;;;;;;;;25.40;73.20;;;;;;5091207;28;20011;-78
2022/04/25 13:07:37;;;;;;;;;;;25.20;73.40;;;;;;5090019;28;19912;-78
2022/04/25 13:10:05;;;;;;;;;;;25.20;74.50;;;;;;5091340;28;20015;-78
2022/04/25 13:12:33;;;;;;;;;;;25.20;75.40;;;;;;5091325;28;19908;-79
2022/04/25 13:14:59;;;;;;;;;;;25.30;75.60;;;;;;5091762;28;20043;-79
2022/04/25 13:17:25;;;;;;;;;;;25.20;75.10;;;;;;5089922;28;20006;-78
2022/04/25 13:19:51;;;;;;;;;;;24.60;73.10;;;;;;5091829;28;19965;-78
2022/04/25 13:22:17;;;;;;;;;;;24.50;76.40;;;;;;5089985;28;19908;-79
2022/04/25 13:24:46;;;;;;;;;;;24.50;78.00;;;;;;5090004;28;19927;-80
2022/04/25 13:27:13;;;;;;;;;;;24.60;75.70;;;;;;5091818;28;19965;-79
2022/04/25 13:29:39;;;;;;;;;;;24.20;73.30;;;;;;5090050;28;19940;-79
2022/04/25 13:32:05;;;;;;;;;;;24.40;72.10;;;;;;5091221;28;19908;-79
2022/04/25 13:34:32;;;;;;;;;;;24.30;72.20;;;;;;5092302;28;20355;-80
2022/04/25 13:36:58;;;;;;;;;;;24.40;71.70;;;;;;5091410;28;19908;-79
2022/04/25 13:39:24;;;;;;;;;;;24.30;70.60;;;;;;5091812;28;20014;-80
2022/04/25 13:41:52;;;;;;;;;;;24.50;72.20;;;;;;5092224;28;20013;-80
2022/04/25 13:44:19;;;;;;;;;;;24.50;74.20;;;;;;5091333;28;19918;-79
2022/04/25 13:46:46;;;;;;;;;;;24.60;75.00;;;;;;5091041;28;20228;-80
2022/04/25 13:49:12;;;;;;;;;;;24.60;76.10;;;;;;5091283;28;19919;-79
2022/04/25 13:51:38;;;;;;;;;;;24.70;75.80;;;;;;5090977;28;19942;-81
2022/04/25 13:54:04;;;;;;;;;;;24.90;77.00;;;;;;5091227;28;19915;-80
2022/04/25 13:56:30;;;;;;;;;;;24.70;78.70;;;;;;5090835;28;19908;-79
2022/04/25 13:58:56;;;;;;;;;;;24.20;81.00;;;;;;5090753;28;19908;-79
2022/04/25 14:01:22;;;;;;;;;;;24.20;80.80;;;;;;5090551;28;19923;-80
2022/04/25 14:03:49;;;;;;;;;;;24.40;81.20;;;;;;5090913;28;20342;-79
2022/04/25 14:06:15;;;;;;;;;;;24.60;82.00;;;;;;5088723;28;20420;-79
2022/04/25 14:08:43;;;;;;;;;;;24.70;81.60;;;;;;5088810;28;19908;-80
2022/04/25 14:11:10;;;;;;;;;;;24.40;84.40;;;;;;5090289;28;19918;-77
2022/04/25 14:13:35;;;;;;;;;;;24.30;84.80;;;;;;5090717;28;20312;-78
2022/04/25 14:16:01;;;;;;;;;;;24.50;83.80;;;;;;5088908;28;19912;-78
2022/04/25 14:18:29;;;;;;;;;;;24.60;83.90;;;;;;5091910;28;19908;-78
2022/04/25 14:20:55;;;;;;;;;;;24.70;82.70;;;;;;5091544;28;19930;-79
2022/04/25 14:23:20;;;;;;;;;;;24.70;83.00;;;;;;5094979;28;20412;-79
2022/04/25 14:25:47;;;;;;;;;;;24.80;83.10;;;;;;5095418;28;19916;-79
2022/04/25 14:28:13;;;;;;;;;;;24.90;83.10;;;;;;5094019;28;20273;-78
2022/04/25 14:30:39;;;;;;;;;;;24.50;84.20;;;;;;5095220;28;20007;-78
2022/04/25 14:33:04;;;;;;;;;;;24.30;85.10;;;;;;5095098;28;20313;-77
2022/04/25 14:35:30;;;;;;;;;;;23.90;86.30;;;;;;5095260;28;19924;-78
2022/04/25 14:37:56;;;;;;;;;;;23.80;87.30;;;;;;5094856;28;19908;-78
2022/04/25 14:40:22;;;;;;;;;;;23.80;87.50;;;;;;5094934;28;20367;-78
2022/04/25 14:42:48;;;;;;;;;;;23.40;87.70;;;;;;5095114;28;20268;-78
2022/04/25 14:45:14;;;;;;;;;;;23.40;87.80;;;;;;5094754;28;19923;-81
2022/04/25 14:47:46;;;;;;;;;;;23.50;87.90;;;;;;5094341;28;19915;-79
2022/04/25 14:55:40;;;;;;;;;;;23.90;85.60;;;;;;5093999;28;19915;-78
2022/04/25 14:58:07;;;;;;;;;;;24.00;86.50;;;;;;5093838;28;19908;-79
2022/04/25 15:00:33;;;;;;;;;;;24.00;85.00;;;;;;5093408;28;20000;-80
2022/04/25 15:02:59;;;;;;;;;;;23.90;85.00;;;;;;5093652;28;19915;-79
2022/04/25 15:05:25;;;;;;;;;;;23.90;84.40;;;;;;5093667;28;19963;-79
2022/04/25 15:07:50;;;;;;;;;;;24.00;84.00;;;;;;5093591;28;19938;-80
2022/04/25 15:10:16;;;;;;;;;;;24.00;82.80;;;;;;5093905;28;19908;-80
2022/04/25 15:12:42;;;;;;;;;;;24.00;80.10;;;;;;5092040;28;20257;-78
2022/04/25 15:15:09;;;;;;;;;;;23.80;79.00;;;;;;5092136;28;19908;-78